sensor_id;sensor_type;location;lat;lon;timestamp;P1;durP1;ratioP1;P2;durP2;ratioP2
24153;SDS011;12312;53.362;-1.518;2024-03-17T00:00:17;32.40;;;12.02;;
24153;SDS011;12312;53.362;-1.518;2024-03-17T00:03:01;31.45;;;13.68;;
24153;SDS011;12312;53.362;-1.518;2024-03-17T00:05:46;33.00;;;12.80;;
24153;SDS011;12312;53.362;-1.518;2024-03-17T00:08:29;30.27;;;12.18;;
24153;SDS011;12312;53.362;-1.518;2024-03-17T00:11:13;31.60;;;12.48;;
24153;SDS011;12312;53.362;-1.518;2024-03-17T00:13:57;28.42;;;11.63;;
24153;SDS011;12312;53.362;-1.518;2024-03-17T00:16:41;29.98;;;12.60;;
24153;SDS011;12312;53.362;-1.518;2024-03-17T00:19:25;33.72;;;12.77;;
24153;SDS011;12312;53.362;-1.518;2024-03-17T00:22:09;32.78;;;12.95;;
24153;SDS011;12312;53.362;-1.518;2024-03-17T00:24:57;28.50;;;13.00;;
24153;SDS011;12312;53.362;-1.518;2024-03-17T00:27:41;30.83;;;11.57;;
24153;SDS011;12312;53.362;-1.518;2024-03-17T00:30:28;25.15;;;11.45;;
24153;SDS011;12312;53.362;-1.518;2024-03-17T00:33:12;33.58;;;12.25;;
24153;SDS011;12312;53.362;-1.518;2024-03-17T00:35:59;33.87;;;13.87;;
24153;SDS011;12312;53.362;-1.518;2024-03-17T00:38:42;33.47;;;13.20;;
24153;SDS011;12312;53.362;-1.518;2024-03-17T00:41:26;38.33;;;12.95;;
24153;SDS011;12312;53.362;-1.518;2024-03-17T00:44:10;34.78;;;13.80;;
24153;SDS011;12312;53.362;-1.518;2024-03-17T00:46:54;37.88;;;12.60;;
24153;SDS011;12312;53.362;-1.518;2024-03-17T00:49:38;37.10;;;13.55;;
24153;SDS011;12312;53.362;-1.518;2024-03-17T00:52:22;42.33;;;14.25;;
24153;SDS011;12312;53.362;-1.518;2024-03-17T00:55:06;42.13;;;15.23;;
24153;SDS011;12312;53.362;-1.518;2024-03-17T00:57:51;37.22;;;13.35;;
24153;SDS011;12312;53.362;-1.518;2024-03-17T01:00:35;41.15;;;13.25;;
24153;SDS011;12312;53.362;-1.518;2024-03-17T01:03:19;36.58;;;13.75;;
24153;SDS011;12312;53.362;-1.518;2024-03-17T01:06:03;38.67;;;14.07;;
24153;SDS011;12312;53.362;-1.518;2024-03-17T01:08:48;35.80;;;12.80;;
24153;SDS011;12312;53.362;-1.518;2024-03-17T01:11:32;40.78;;;14.35;;
24153;SDS011;12312;53.362;-1.518;2024-03-17T01:14:16;35.20;;;13.15;;
24153;SDS011;12312;53.362;-1.518;2024-03-17T01:17:00;36.15;;;12.75;;
24153;SDS011;12312;53.362;-1.518;2024-03-17T01:19:44;33.45;;;12.73;;
24153;SDS011;12312;53.362;-1.518;2024-03-17T01:22:28;32.00;;;12.88;;
24153;SDS011;12312;53.362;-1.518;2024-03-17T01:25:12;40.08;;;12.02;;
24153;SDS011;12312;53.362;-1.518;2024-03-17T01:27:56;38.53;;;13.40;;
24153;SDS011;12312;53.362;-1.518;2024-03-17T01:30:40;29.67;;;12.30;;
24153;SDS011;12312;53.362;-1.518;2024-03-17T01:33:24;33.85;;;12.45;;
24153;SDS011;12312;53.362;-1.518;2024-03-17T01:36:08;41.58;;;13.25;;
24153;SDS011;12312;53.362;-1.518;2024-03-17T01:38:52;32.78;;;12.65;;
24153;SDS011;12312;53.362;-1.518;2024-03-17T01:41:36;33.40;;;12.77;;
24153;SDS011;12312;53.362;-1.518;2024-03-17T01:44:24;38.03;;;13.23;;
24153;SDS011;12312;53.362;-1.518;2024-03-17T01:47:09;34.33;;;12.43;;
24153;SDS011;12312;53.362;-1.518;2024-03-17T01:49:53;30.30;;;12.32;;
24153;SDS011;12312;53.362;-1.518;2024-03-17T01:52:38;31.10;;;12.25;;
24153;SDS011;12312;53.362;-1.518;2024-03-17T01:55:22;32.63;;;11.73;;
24153;SDS011;12312;53.362;-1.518;2024-03-17T01:58:06;28.63;;;10.30;;
24153;SDS011;12312;53.362;-1.518;2024-03-17T02:00:54;30.02;;;12.80;;
24153;SDS011;12312;53.362;-1.518;2024-03-17T02:03:38;34.00;;;12.07;;
24153;SDS011;12312;53.362;-1.518;2024-03-17T02:06:21;32.22;;;10.35;;
24153;SDS011;12312;53.362;-1.518;2024-03-17T02:09:07;26.77;;;11.18;;
24153;SDS011;12312;53.362;-1.518;2024-03-17T02:11:51;27.33;;;12.02;;
24153;SDS011;12312;53.362;-1.518;2024-03-17T02:14:35;31.70;;;12.10;;
24153;SDS011;12312;53.362;-1.518;2024-03-17T02:17:19;29.23;;;11.07;;
24153;SDS011;12312;53.362;-1.518;2024-03-17T02:20:03;29.08;;;12.20;;
24153;SDS011;12312;53.362;-1.518;2024-03-17T02:22:51;34.28;;;13.40;;
24153;SDS011;12312;53.362;-1.518;2024-03-17T02:25:35;33.03;;;13.32;;
24153;SDS011;12312;53.362;-1.518;2024-03-17T02:28:19;28.40;;;12.40;;
24153;SDS011;12312;53.362;-1.518;2024-03-17T02:31:04;42.03;;;12.68;;
24153;SDS011;12312;53.362;-1.518;2024-03-17T02:33:48;37.58;;;12.30;;
24153;SDS011;12312;53.362;-1.518;2024-03-17T02:36:32;26.10;;;11.77;;
24153;SDS011;12312;53.362;-1.518;2024-03-17T02:39:16;32.97;;;12.18;;
24153;SDS011;12312;53.362;-1.518;2024-03-17T02:42:17;34.83;;;13.32;;
24153;SDS011;12312;53.362;-1.518;2024-03-17T02:45:01;40.72;;;13.32;;
24153;SDS011;12312;53.362;-1.518;2024-03-17T02:47:45;25.83;;;11.93;;
24153;SDS011;12312;53.362;-1.518;2024-03-17T02:50:29;32.70;;;13.27;;
24153;SDS011;12312;53.362;-1.518;2024-03-17T02:53:13;42.72;;;14.13;;
24153;SDS011;12312;53.362;-1.518;2024-03-17T02:55:57;42.75;;;15.70;;
24153;SDS011;12312;53.362;-1.518;2024-03-17T02:58:42;38.38;;;15.27;;
24153;SDS011;12312;53.362;-1.518;2024-03-17T03:01:26;40.85;;;13.77;;
24153;SDS011;12312;53.362;-1.518;2024-03-17T03:04:10;37.25;;;13.07;;
24153;SDS011;12312;53.362;-1.518;2024-03-17T03:06:54;34.22;;;11.52;;
24153;SDS011;12312;53.362;-1.518;2024-03-17T03:09:38;33.05;;;12.15;;
24153;SDS011;12312;53.362;-1.518;2024-03-17T03:12:22;27.30;;;10.77;;
24153;SDS011;12312;53.362;-1.518;2024-03-17T03:15:06;33.30;;;11.40;;
24153;SDS011;12312;53.362;-1.518;2024-03-17T03:17:50;27.02;;;9.23;;
24153;SDS011;12312;53.362;-1.518;2024-03-17T03:20:34;26.23;;;10.25;;
24153;SDS011;12312;53.362;-1.518;2024-03-17T03:23:18;27.02;;;9.75;;
24153;SDS011;12312;53.362;-1.518;2024-03-17T03:26:03;23.88;;;8.57;;
24153;SDS011;12312;53.362;-1.518;2024-03-17T03:28:47;23.25;;;7.32;;
24153;SDS011;12312;53.362;-1.518;2024-03-17T03:31:31;22.00;;;7.32;;
24153;SDS011;12312;53.362;-1.518;2024-03-17T03:34:16;20.70;;;7.40;;
24153;SDS011;12312;53.362;-1.518;2024-03-17T03:37:00;19.85;;;7.22;;
24153;SDS011;12312;53.362;-1.518;2024-03-17T03:39:44;19.23;;;6.78;;
24153;SDS011;12312;53.362;-1.518;2024-03-17T03:42:28;16.13;;;6.60;;
24153;SDS011;12312;53.362;-1.518;2024-03-17T03:45:12;15.77;;;5.53;;
24153;SDS011;12312;53.362;-1.518;2024-03-17T03:47:56;22.85;;;6.80;;
24153;SDS011;12312;53.362;-1.518;2024-03-17T03:50:40;18.08;;;6.20;;
24153;SDS011;12312;53.362;-1.518;2024-03-17T03:53:24;13.73;;;5.80;;
24153;SDS011;12312;53.362;-1.518;2024-03-17T03:56:08;14.65;;;5.63;;
24153;SDS011;12312;53.362;-1.518;2024-03-17T03:58:54;16.55;;;5.68;;
24153;SDS011;12312;53.362;-1.518;2024-03-17T04:01:38;22.73;;;6.43;;
24153;SDS011;12312;53.362;-1.518;2024-03-17T04:04:22;10.27;;;5.10;;
24153;SDS011;12312;53.362;-1.518;2024-03-17T04:07:06;15.95;;;5.00;;
24153;SDS011;12312;53.362;-1.518;2024-03-17T04:09:51;10.25;;;4.68;;
24153;SDS011;12312;53.362;-1.518;2024-03-17T04:12:35;8.75;;;3.83;;
24153;SDS011;12312;53.362;-1.518;2024-03-17T04:15:19;13.40;;;4.60;;
24153;SDS011;12312;53.362;-1.518;2024-03-17T04:18:04;8.27;;;3.30;;
24153;SDS011;12312;53.362;-1.518;2024-03-17T04:20:47;8.52;;;3.75;;
24153;SDS011;12312;53.362;-1.518;2024-03-17T04:23:31;8.63;;;3.70;;
24153;SDS011;12312;53.362;-1.518;2024-03-17T04:26:15;8.70;;;3.47;;
24153;SDS011;12312;53.362;-1.518;2024-03-17T04:28:59;6.80;;;3.45;;
24153;SDS011;12312;53.362;-1.518;2024-03-17T04:31:44;9.65;;;3.40;;
24153;SDS011;12312;53.362;-1.518;2024-03-17T04:34:32;5.93;;;2.83;;
24153;SDS011;12312;53.362;-1.518;2024-03-17T04:37:16;13.90;;;4.03;;
24153;SDS011;12312;53.362;-1.518;2024-03-17T04:40:01;9.18;;;4.13;;
24153;SDS011;12312;53.362;-1.518;2024-03-17T04:42:48;9.02;;;3.83;;
24153;SDS011;12312;53.362;-1.518;2024-03-17T04:45:32;9.55;;;4.25;;
24153;SDS011;12312;53.362;-1.518;2024-03-17T04:48:16;8.50;;;4.47;;
24153;SDS011;12312;53.362;-1.518;2024-03-17T04:51:00;10.52;;;4.65;;
24153;SDS011;12312;53.362;-1.518;2024-03-17T04:53:44;15.45;;;4.57;;
24153;SDS011;12312;53.362;-1.518;2024-03-17T04:56:28;9.82;;;4.85;;
24153;SDS011;12312;53.362;-1.518;2024-03-17T04:59:12;12.77;;;5.10;;
24153;SDS011;12312;53.362;-1.518;2024-03-17T05:01:56;9.30;;;4.78;;
24153;SDS011;12312;53.362;-1.518;2024-03-17T05:04:40;14.13;;;5.25;;
24153;SDS011;12312;53.362;-1.518;2024-03-17T05:07:25;12.50;;;4.78;;
24153;SDS011;12312;53.362;-1.518;2024-03-17T05:10:09;13.88;;;4.45;;
24153;SDS011;12312;53.362;-1.518;2024-03-17T05:12:53;8.80;;;3.85;;
24153;SDS011;12312;53.362;-1.518;2024-03-17T05:18:23;10.95;;;4.30;;
24153;SDS011;12312;53.362;-1.518;2024-03-17T05:21:09;9.60;;;3.40;;
24153;SDS011;12312;53.362;-1.518;2024-03-17T05:23:53;7.35;;;3.25;;
24153;SDS011;12312;53.362;-1.518;2024-03-17T05:26:37;7.32;;;3.42;;
24153;SDS011;12312;53.362;-1.518;2024-03-17T05:29:21;5.35;;;2.95;;
24153;SDS011;12312;53.362;-1.518;2024-03-17T05:32:06;10.18;;;2.35;;
24153;SDS011;12312;53.362;-1.518;2024-03-17T05:34:50;4.45;;;2.10;;
24153;SDS011;12312;53.362;-1.518;2024-03-17T05:37:34;4.07;;;2.28;;
24153;SDS011;12312;53.362;-1.518;2024-03-17T05:40:19;4.45;;;2.17;;
24153;SDS011;12312;53.362;-1.518;2024-03-17T05:43:03;4.35;;;2.17;;
24153;SDS011;12312;53.362;-1.518;2024-03-17T05:45:47;6.20;;;1.90;;
24153;SDS011;12312;53.362;-1.518;2024-03-17T05:48:38;4.93;;;1.70;;
24153;SDS011;12312;53.362;-1.518;2024-03-17T05:51:22;3.67;;;1.80;;
24153;SDS011;12312;53.362;-1.518;2024-03-17T05:54:09;7.93;;;2.20;;
24153;SDS011;12312;53.362;-1.518;2024-03-17T05:56:53;4.28;;;1.48;;
24153;SDS011;12312;53.362;-1.518;2024-03-17T05:59:37;2.03;;;1.23;;
24153;SDS011;12312;53.362;-1.518;2024-03-17T06:02:21;3.15;;;1.40;;
24153;SDS011;12312;53.362;-1.518;2024-03-17T06:05:04;2.10;;;1.30;;
24153;SDS011;12312;53.362;-1.518;2024-03-17T06:07:48;1.50;;;0.93;;
24153;SDS011;12312;53.362;-1.518;2024-03-17T06:10:32;1.85;;;1.20;;
24153;SDS011;12312;53.362;-1.518;2024-03-17T06:13:17;2.40;;;0.93;;
24153;SDS011;12312;53.362;-1.518;2024-03-17T06:16:04;1.60;;;0.90;;
24153;SDS011;12312;53.362;-1.518;2024-03-17T06:18:48;1.23;;;0.90;;
24153;SDS011;12312;53.362;-1.518;2024-03-17T06:21:34;3.65;;;1.10;;
24153;SDS011;12312;53.362;-1.518;2024-03-17T06:24:18;4.22;;;0.80;;
24153;SDS011;12312;53.362;-1.518;2024-03-17T06:27:02;2.35;;;0.70;;
24153;SDS011;12312;53.362;-1.518;2024-03-17T06:29:46;1.70;;;0.90;;
24153;SDS011;12312;53.362;-1.518;2024-03-17T06:32:30;1.20;;;0.98;;
24153;SDS011;12312;53.362;-1.518;2024-03-17T06:35:15;1.42;;;0.90;;
24153;SDS011;12312;53.362;-1.518;2024-03-17T06:37:59;1.15;;;0.90;;
24153;SDS011;12312;53.362;-1.518;2024-03-17T06:40:50;1.48;;;0.68;;
24153;SDS011;12312;53.362;-1.518;2024-03-17T06:43:34;1.60;;;0.75;;
24153;SDS011;12312;53.362;-1.518;2024-03-17T06:46:18;1.17;;;0.60;;
24153;SDS011;12312;53.362;-1.518;2024-03-17T06:49:02;1.48;;;0.90;;
24153;SDS011;12312;53.362;-1.518;2024-03-17T06:51:46;0.65;;;0.52;;
24153;SDS011;12312;53.362;-1.518;2024-03-17T06:54:32;0.70;;;0.57;;
24153;SDS011;12312;53.362;-1.518;2024-03-17T06:57:17;0.93;;;0.75;;
24153;SDS011;12312;53.362;-1.518;2024-03-17T07:00:01;0.75;;;0.60;;
24153;SDS011;12312;53.362;-1.518;2024-03-17T07:02:49;4.47;;;1.00;;
24153;SDS011;12312;53.362;-1.518;2024-03-17T07:05:33;4.28;;;1.40;;
24153;SDS011;12312;53.362;-1.518;2024-03-17T07:08:17;1.70;;;1.00;;
24153;SDS011;12312;53.362;-1.518;2024-03-17T07:11:03;3.80;;;1.27;;
24153;SDS011;12312;53.362;-1.518;2024-03-17T07:13:47;3.40;;;1.25;;
24153;SDS011;12312;53.362;-1.518;2024-03-17T07:16:32;2.38;;;1.25;;
24153;SDS011;12312;53.362;-1.518;2024-03-17T07:19:16;3.42;;;1.20;;
24153;SDS011;12312;53.362;-1.518;2024-03-17T07:22:00;3.15;;;1.30;;
24153;SDS011;12312;53.362;-1.518;2024-03-17T07:24:44;3.28;;;1.25;;
24153;SDS011;12312;53.362;-1.518;2024-03-17T07:27:28;4.53;;;1.05;;
24153;SDS011;12312;53.362;-1.518;2024-03-17T07:30:12;2.03;;;1.10;;
24153;SDS011;12312;53.362;-1.518;2024-03-17T07:32:56;3.80;;;1.15;;
24153;SDS011;12312;53.362;-1.518;2024-03-17T07:35:53;1.85;;;1.30;;
24153;SDS011;12312;53.362;-1.518;2024-03-17T07:38:37;1.88;;;1.40;;
24153;SDS011;12312;53.362;-1.518;2024-03-17T07:41:21;2.05;;;1.08;;
24153;SDS011;12312;53.362;-1.518;2024-03-17T07:44:07;1.60;;;0.95;;
24153;SDS011;12312;53.362;-1.518;2024-03-17T07:46:51;1.00;;;0.77;;
24153;SDS011;12312;53.362;-1.518;2024-03-17T07:49:35;1.02;;;0.80;;
24153;SDS011;12312;53.362;-1.518;2024-03-17T07:52:19;1.13;;;0.73;;
24153;SDS011;12312;53.362;-1.518;2024-03-17T07:55:03;1.35;;;1.00;;
24153;SDS011;12312;53.362;-1.518;2024-03-17T07:57:47;4.75;;;0.95;;
24153;SDS011;12312;53.362;-1.518;2024-03-17T08:00:31;2.15;;;0.63;;
24153;SDS011;12312;53.362;-1.518;2024-03-17T08:03:15;1.50;;;0.90;;
24153;SDS011;12312;53.362;-1.518;2024-03-17T08:06:00;2.60;;;0.70;;
24153;SDS011;12312;53.362;-1.518;2024-03-17T08:08:44;0.80;;;0.60;;
24153;SDS011;12312;53.362;-1.518;2024-03-17T08:11:28;2.30;;;1.05;;
24153;SDS011;12312;53.362;-1.518;2024-03-17T08:14:12;1.20;;;0.70;;
24153;SDS011;12312;53.362;-1.518;2024-03-17T08:16:58;1.33;;;0.73;;
24153;SDS011;12312;53.362;-1.518;2024-03-17T08:19:42;1.50;;;0.65;;
24153;SDS011;12312;53.362;-1.518;2024-03-17T08:22:26;3.80;;;0.85;;
24153;SDS011;12312;53.362;-1.518;2024-03-17T08:25:10;0.90;;;0.70;;
24153;SDS011;12312;53.362;-1.518;2024-03-17T08:27:54;0.80;;;0.60;;
24153;SDS011;12312;53.362;-1.518;2024-03-17T08:30:38;5.35;;;1.15;;
24153;SDS011;12312;53.362;-1.518;2024-03-17T08:33:22;0.68;;;0.50;;
24153;SDS011;12312;53.362;-1.518;2024-03-17T08:36:07;0.70;;;0.70;;
24153;SDS011;12312;53.362;-1.518;2024-03-17T08:38:51;1.95;;;0.70;;
24153;SDS011;12312;53.362;-1.518;2024-03-17T08:41:35;0.52;;;0.52;;
24153;SDS011;12312;53.362;-1.518;2024-03-17T08:44:19;1.35;;;0.50;;
24153;SDS011;12312;53.362;-1.518;2024-03-17T08:47:03;1.35;;;0.82;;
24153;SDS011;12312;53.362;-1.518;2024-03-17T08:49:49;1.67;;;0.63;;
24153;SDS011;12312;53.362;-1.518;2024-03-17T08:52:34;4.00;;;0.60;;
24153;SDS011;12312;53.362;-1.518;2024-03-17T08:55:18;1.42;;;0.82;;
24153;SDS011;12312;53.362;-1.518;2024-03-17T08:58:02;0.60;;;0.60;;
24153;SDS011;12312;53.362;-1.518;2024-03-17T09:00:46;1.25;;;0.60;;
24153;SDS011;12312;53.362;-1.518;2024-03-17T09:03:30;1.75;;;0.75;;
24153;SDS011;12312;53.362;-1.518;2024-03-17T09:06:14;2.60;;;0.95;;
24153;SDS011;12312;53.362;-1.518;2024-03-17T09:08:59;1.00;;;0.90;;
24153;SDS011;12312;53.362;-1.518;2024-03-17T09:11:43;2.65;;;1.17;;
24153;SDS011;12312;53.362;-1.518;2024-03-17T09:14:27;1.55;;;1.30;;
24153;SDS011;12312;53.362;-1.518;2024-03-17T09:17:10;1.33;;;1.05;;
24153;SDS011;12312;53.362;-1.518;2024-03-17T09:19:54;2.22;;;1.30;;
24153;SDS011;12312;53.362;-1.518;2024-03-17T09:22:38;1.77;;;1.40;;
24153;SDS011;12312;53.362;-1.518;2024-03-17T09:25:22;1.70;;;1.42;;
24153;SDS011;12312;53.362;-1.518;2024-03-17T09:28:07;4.10;;;1.88;;
24153;SDS011;12312;53.362;-1.518;2024-03-17T09:30:51;1.80;;;1.55;;
24153;SDS011;12312;53.362;-1.518;2024-03-17T09:33:36;2.50;;;1.77;;
24153;SDS011;12312;53.362;-1.518;2024-03-17T09:36:20;1.65;;;1.17;;
24153;SDS011;12312;53.362;-1.518;2024-03-17T09:39:05;3.22;;;1.70;;
24153;SDS011;12312;53.362;-1.518;2024-03-17T09:41:49;3.28;;;1.80;;
24153;SDS011;12312;53.362;-1.518;2024-03-17T09:44:33;3.60;;;2.38;;
24153;SDS011;12312;53.362;-1.518;2024-03-17T09:47:19;3.25;;;2.08;;
24153;SDS011;12312;53.362;-1.518;2024-03-17T09:50:07;4.43;;;2.47;;
24153;SDS011;12312;53.362;-1.518;2024-03-17T09:52:56;5.57;;;2.40;;
24153;SDS011;12312;53.362;-1.518;2024-03-17T09:55:40;3.40;;;2.47;;
24153;SDS011;12312;53.362;-1.518;2024-03-17T09:58:24;3.70;;;2.33;;
24153;SDS011;12312;53.362;-1.518;2024-03-17T10:01:08;3.38;;;2.45;;
24153;SDS011;12312;53.362;-1.518;2024-03-17T10:03:52;3.58;;;2.42;;
24153;SDS011;12312;53.362;-1.518;2024-03-17T10:06:44;3.50;;;2.33;;
24153;SDS011;12312;53.362;-1.518;2024-03-17T10:09:28;2.30;;;1.60;;
24153;SDS011;12312;53.362;-1.518;2024-03-17T10:12:28;3.35;;;2.25;;
24153;SDS011;12312;53.362;-1.518;2024-03-17T10:15:12;9.70;;;2.13;;
24153;SDS011;12312;53.362;-1.518;2024-03-17T10:17:56;1.23;;;1.02;;
24153;SDS011;12312;53.362;-1.518;2024-03-17T10:20:40;1.42;;;1.27;;
24153;SDS011;12312;53.362;-1.518;2024-03-17T10:23:24;1.85;;;1.00;;
24153;SDS011;12312;53.362;-1.518;2024-03-17T10:26:13;2.33;;;1.08;;
24153;SDS011;12312;53.362;-1.518;2024-03-17T10:28:58;1.48;;;1.25;;
24153;SDS011;12312;53.362;-1.518;2024-03-17T10:31:42;1.55;;;1.10;;
24153;SDS011;12312;53.362;-1.518;2024-03-17T10:34:26;1.45;;;1.00;;
24153;SDS011;12312;53.362;-1.518;2024-03-17T10:40:01;1.17;;;0.90;;
24153;SDS011;12312;53.362;-1.518;2024-03-17T10:42:47;1.02;;;0.90;;
24153;SDS011;12312;53.362;-1.518;2024-03-17T10:45:33;1.23;;;1.03;;
24153;SDS011;12312;53.362;-1.518;2024-03-17T10:48:22;1.50;;;0.95;;
24153;SDS011;12312;53.362;-1.518;2024-03-17T10:51:13;1.80;;;1.10;;
24153;SDS011;12312;53.362;-1.518;2024-03-17T10:53:59;1.58;;;1.02;;
24153;SDS011;12312;53.362;-1.518;2024-03-17T10:56:43;1.52;;;0.90;;
24153;SDS011;12312;53.362;-1.518;2024-03-17T10:59:41;2.08;;;1.33;;
24153;SDS011;12312;53.362;-1.518;2024-03-17T11:02:28;3.55;;;1.40;;
24153;SDS011;12312;53.362;-1.518;2024-03-17T11:08:03;2.15;;;1.10;;
24153;SDS011;12312;53.362;-1.518;2024-03-17T11:10:51;0.80;;;0.80;;
24153;SDS011;12312;53.362;-1.518;2024-03-17T11:13:39;1.17;;;0.90;;
24153;SDS011;12312;53.362;-1.518;2024-03-17T11:16:26;2.70;;;1.10;;
24153;SDS011;12312;53.362;-1.518;2024-03-17T11:19:15;1.58;;;1.20;;
24153;SDS011;12312;53.362;-1.518;2024-03-17T11:22:21;1.77;;;1.20;;
24153;SDS011;12312;53.362;-1.518;2024-03-17T11:28:07;1.73;;;1.20;;
24153;SDS011;12312;53.362;-1.518;2024-03-17T11:30:54;1.88;;;0.80;;
24153;SDS011;12312;53.362;-1.518;2024-03-17T11:36:30;1.27;;;0.80;;
24153;SDS011;12312;53.362;-1.518;2024-03-17T11:39:16;1.13;;;0.60;;
24153;SDS011;12312;53.362;-1.518;2024-03-17T11:42:12;0.85;;;0.60;;
24153;SDS011;12312;53.362;-1.518;2024-03-17T11:44:59;1.05;;;0.73;;
24153;SDS011;12312;53.362;-1.518;2024-03-17T11:47:43;2.67;;;0.68;;
24153;SDS011;12312;53.362;-1.518;2024-03-17T11:50:27;0.82;;;0.70;;
24153;SDS011;12312;53.362;-1.518;2024-03-17T11:53:11;1.42;;;0.50;;
24153;SDS011;12312;53.362;-1.518;2024-03-17T11:55:55;0.90;;;0.57;;
24153;SDS011;12312;53.362;-1.518;2024-03-17T11:58:39;0.40;;;0.40;;
24153;SDS011;12312;53.362;-1.518;2024-03-17T12:01:28;0.50;;;0.40;;
24153;SDS011;12312;53.362;-1.518;2024-03-17T12:04:12;0.30;;;0.30;;
24153;SDS011;12312;53.362;-1.518;2024-03-17T12:06:58;0.43;;;0.40;;
24153;SDS011;12312;53.362;-1.518;2024-03-17T12:09:43;0.50;;;0.50;;
24153;SDS011;12312;53.362;-1.518;2024-03-17T12:12:29;0.35;;;0.30;;
24153;SDS011;12312;53.362;-1.518;2024-03-17T12:15:19;0.30;;;0.30;;
24153;SDS011;12312;53.362;-1.518;2024-03-17T12:18:04;0.30;;;0.30;;
24153;SDS011;12312;53.362;-1.518;2024-03-17T12:20:48;0.30;;;0.30;;
24153;SDS011;12312;53.362;-1.518;2024-03-17T12:23:32;0.50;;;0.40;;
24153;SDS011;12312;53.362;-1.518;2024-03-17T12:26:17;0.37;;;0.37;;
24153;SDS011;12312;53.362;-1.518;2024-03-17T12:29:01;0.52;;;0.38;;
24153;SDS011;12312;53.362;-1.518;2024-03-17T12:31:45;0.25;;;0.20;;
24153;SDS011;12312;53.362;-1.518;2024-03-17T12:34:29;0.43;;;0.30;;
24153;SDS011;12312;53.362;-1.518;2024-03-17T12:37:15;0.40;;;0.40;;
24153;SDS011;12312;53.362;-1.518;2024-03-17T12:40:00;0.57;;;0.50;;
24153;SDS011;12312;53.362;-1.518;2024-03-17T12:42:46;0.30;;;0.30;;
24153;SDS011;12312;53.362;-1.518;2024-03-17T12:45:30;0.32;;;0.30;;
24153;SDS011;12312;53.362;-1.518;2024-03-17T12:48:14;0.30;;;0.30;;
24153;SDS011;12312;53.362;-1.518;2024-03-17T12:50:58;0.88;;;0.38;;
24153;SDS011;12312;53.362;-1.518;2024-03-17T12:53:42;0.68;;;0.40;;
24153;SDS011;12312;53.362;-1.518;2024-03-17T12:56:25;0.30;;;0.30;;
24153;SDS011;12312;53.362;-1.518;2024-03-17T12:59:38;0.40;;;0.35;;
24153;SDS011;12312;53.362;-1.518;2024-03-17T13:02:41;0.90;;;0.30;;
24153;SDS011;12312;53.362;-1.518;2024-03-17T13:05:26;0.50;;;0.40;;
24153;SDS011;12312;53.362;-1.518;2024-03-17T13:08:09;0.52;;;0.40;;
24153;SDS011;12312;53.362;-1.518;2024-03-17T13:10:54;0.25;;;0.20;;
24153;SDS011;12312;53.362;-1.518;2024-03-17T13:13:38;1.85;;;0.52;;
24153;SDS011;12312;53.362;-1.518;2024-03-17T13:16:22;1.48;;;0.55;;
24153;SDS011;12312;53.362;-1.518;2024-03-17T13:19:06;1.20;;;0.45;;
24153;SDS011;12312;53.362;-1.518;2024-03-17T13:21:52;0.68;;;0.52;;
24153;SDS011;12312;53.362;-1.518;2024-03-17T13:24:36;0.73;;;0.50;;
24153;SDS011;12312;53.362;-1.518;2024-03-17T13:27:20;1.15;;;0.50;;
24153;SDS011;12312;53.362;-1.518;2024-03-17T13:30:04;0.30;;;0.30;;
24153;SDS011;12312;53.362;-1.518;2024-03-17T13:32:50;0.47;;;0.40;;
24153;SDS011;12312;53.362;-1.518;2024-03-17T13:35:39;0.73;;;0.50;;
24153;SDS011;12312;53.362;-1.518;2024-03-17T13:38:23;0.32;;;0.32;;
24153;SDS011;12312;53.362;-1.518;2024-03-17T13:41:07;0.40;;;0.40;;
24153;SDS011;12312;53.362;-1.518;2024-03-17T13:43:52;1.98;;;0.40;;
24153;SDS011;12312;53.362;-1.518;2024-03-17T13:46:40;0.28;;;0.28;;
24153;SDS011;12312;53.362;-1.518;2024-03-17T13:49:25;1.52;;;0.40;;
24153;SDS011;12312;53.362;-1.518;2024-03-17T13:52:15;0.43;;;0.30;;
24153;SDS011;12312;53.362;-1.518;2024-03-17T13:54:58;0.45;;;0.30;;
24153;SDS011;12312;53.362;-1.518;2024-03-17T13:57:43;0.52;;;0.28;;
24153;SDS011;12312;53.362;-1.518;2024-03-17T14:00:28;0.47;;;0.30;;
24153;SDS011;12312;53.362;-1.518;2024-03-17T14:03:12;0.30;;;0.30;;
24153;SDS011;12312;53.362;-1.518;2024-03-17T14:05:56;1.58;;;0.52;;
24153;SDS011;12312;53.362;-1.518;2024-03-17T14:08:40;0.30;;;0.20;;
24153;SDS011;12312;53.362;-1.518;2024-03-17T14:11:24;0.43;;;0.30;;
24153;SDS011;12312;53.362;-1.518;2024-03-17T14:14:08;0.40;;;0.40;;
24153;SDS011;12312;53.362;-1.518;2024-03-17T14:16:51;0.20;;;0.20;;
24153;SDS011;12312;53.362;-1.518;2024-03-17T14:19:37;2.30;;;0.40;;
24153;SDS011;12312;53.362;-1.518;2024-03-17T14:22:21;0.65;;;0.50;;
24153;SDS011;12312;53.362;-1.518;2024-03-17T14:25:08;0.32;;;0.32;;
24153;SDS011;12312;53.362;-1.518;2024-03-17T14:27:56;0.20;;;0.20;;
24153;SDS011;12312;53.362;-1.518;2024-03-17T14:30:40;0.55;;;0.35;;
24153;SDS011;12312;53.362;-1.518;2024-03-17T14:33:24;0.40;;;0.40;;
24153;SDS011;12312;53.362;-1.518;2024-03-17T14:36:08;0.65;;;0.38;;
24153;SDS011;12312;53.362;-1.518;2024-03-17T14:38:52;0.40;;;0.35;;
24153;SDS011;12312;53.362;-1.518;2024-03-17T14:41:36;0.45;;;0.45;;
24153;SDS011;12312;53.362;-1.518;2024-03-17T14:44:21;0.30;;;0.30;;
24153;SDS011;12312;53.362;-1.518;2024-03-17T14:47:05;0.45;;;0.45;;
24153;SDS011;12312;53.362;-1.518;2024-03-17T14:49:50;0.40;;;0.40;;
24153;SDS011;12312;53.362;-1.518;2024-03-17T14:52:35;1.45;;;0.57;;
24153;SDS011;12312;53.362;-1.518;2024-03-17T14:55:20;0.50;;;0.50;;
24153;SDS011;12312;53.362;-1.518;2024-03-17T14:58:04;0.38;;;0.30;;
24153;SDS011;12312;53.362;-1.518;2024-03-17T15:03:37;0.73;;;0.50;;
24153;SDS011;12312;53.362;-1.518;2024-03-17T15:06:22;0.47;;;0.40;;
24153;SDS011;12312;53.362;-1.518;2024-03-17T15:09:06;0.73;;;0.40;;
24153;SDS011;12312;53.362;-1.518;2024-03-17T15:11:52;4.60;;;0.43;;
24153;SDS011;12312;53.362;-1.518;2024-03-17T15:14:36;0.77;;;0.60;;
24153;SDS011;12312;53.362;-1.518;2024-03-17T15:17:21;0.40;;;0.40;;
24153;SDS011;12312;53.362;-1.518;2024-03-17T15:20:05;0.65;;;0.40;;
24153;SDS011;12312;53.362;-1.518;2024-03-17T15:23:00;0.60;;;0.60;;
24153;SDS011;12312;53.362;-1.518;2024-03-17T15:25:44;1.35;;;0.60;;
24153;SDS011;12312;53.362;-1.518;2024-03-17T15:28:28;0.75;;;0.50;;
24153;SDS011;12312;53.362;-1.518;2024-03-17T15:31:12;2.25;;;0.50;;
24153;SDS011;12312;53.362;-1.518;2024-03-17T15:33:56;0.82;;;0.50;;
24153;SDS011;12312;53.362;-1.518;2024-03-17T15:36:40;2.60;;;0.50;;
24153;SDS011;12312;53.362;-1.518;2024-03-17T15:39:26;2.75;;;0.82;;
24153;SDS011;12312;53.362;-1.518;2024-03-17T15:42:10;0.30;;;0.30;;
24153;SDS011;12312;53.362;-1.518;2024-03-17T15:44:56;1.20;;;0.52;;
24153;SDS011;12312;53.362;-1.518;2024-03-17T15:47:41;2.08;;;0.60;;
24153;SDS011;12312;53.362;-1.518;2024-03-17T15:50:25;3.80;;;1.05;;
24153;SDS011;12312;53.362;-1.518;2024-03-17T15:53:09;1.90;;;0.40;;
24153;SDS011;12312;53.362;-1.518;2024-03-17T15:55:57;1.75;;;0.55;;
24153;SDS011;12312;53.362;-1.518;2024-03-17T15:58:41;1.38;;;0.30;;
24153;SDS011;12312;53.362;-1.518;2024-03-17T16:01:26;2.75;;;0.52;;
24153;SDS011;12312;53.362;-1.518;2024-03-17T16:04:10;1.40;;;0.35;;
24153;SDS011;12312;53.362;-1.518;2024-03-17T16:06:54;1.83;;;0.63;;
24153;SDS011;12312;53.362;-1.518;2024-03-17T16:09:41;3.10;;;0.90;;
24153;SDS011;12312;53.362;-1.518;2024-03-17T16:12:25;0.30;;;0.30;;
24153;SDS011;12312;53.362;-1.518;2024-03-17T16:15:09;0.60;;;0.40;;
24153;SDS011;12312;53.362;-1.518;2024-03-17T16:17:53;1.58;;;0.60;;
24153;SDS011;12312;53.362;-1.518;2024-03-17T16:20:46;1.75;;;0.47;;
24153;SDS011;12312;53.362;-1.518;2024-03-17T16:23:50;4.10;;;0.50;;
24153;SDS011;12312;53.362;-1.518;2024-03-17T16:26:36;0.80;;;0.40;;
24153;SDS011;12312;53.362;-1.518;2024-03-17T16:29:21;2.83;;;0.50;;